createdAt,value
2023-02-04T00:00:19.164Z,1018.15
2023-02-04T00:01:19.219Z,1018.14
2023-02-04T00:02:19.210Z,1018.24
2023-02-04T00:03:19.122Z,1018.43
2023-02-04T00:04:19.112Z,1018.30
2023-02-04T00:05:19.168Z,1018.34
2023-02-04T00:06:19.073Z,1018.34
2023-02-04T00:07:19.114Z,1018.40
2023-02-04T00:08:19.086Z,1018.37
2023-02-04T00:09:19.097Z,1018.25
2023-02-04T00:10:19.073Z,1018.48
2023-02-04T00:11:19.021Z,1018.51
2023-02-04T00:12:18.995Z,1018.56
2023-02-04T00:13:18.988Z,1018.59
2023-02-04T00:14:18.978Z,1018.51
2023-02-04T00:15:18.956Z,1018.68
2023-02-04T00:16:18.994Z,1018.68
2023-02-04T00:17:18.966Z,1018.76
2023-02-04T00:18:19.946Z,1018.75
2023-02-04T00:19:18.916Z,1018.85
2023-02-04T00:20:18.884Z,1018.89
2023-02-04T00:21:18.887Z,1018.89
2023-02-04T00:22:18.871Z,1018.93
2023-02-04T00:23:18.874Z,1019.04
2023-02-04T00:24:18.832Z,1019.02
2023-02-04T00:25:18.824Z,1019.04
2023-02-04T00:26:18.849Z,1019.10
2023-02-04T00:27:18.805Z,1019.09
2023-02-04T00:28:18.807Z,1019.14
2023-02-04T00:29:18.818Z,1019.03
2023-02-04T00:30:18.760Z,1019.25
2023-02-04T00:31:18.884Z,1019.24
2023-02-04T00:32:18.849Z,1019.35
2023-02-04T00:33:18.719Z,1019.32
2023-02-04T00:34:18.718Z,1019.40
2023-02-04T00:35:18.698Z,1019.43
2023-02-04T00:36:18.679Z,1019.51
2023-02-04T00:37:18.677Z,1019.68
2023-02-04T00:38:18.657Z,1019.76
2023-02-04T00:39:18.659Z,1019.82
2023-02-04T00:40:18.630Z,1019.73
2023-02-04T00:41:18.603Z,1019.68
2023-02-04T00:42:18.593Z,1019.66
2023-02-04T00:43:18.579Z,1019.69
2023-02-04T00:44:18.563Z,1019.85
2023-02-04T00:45:18.558Z,1019.92
2023-02-04T00:46:18.538Z,1019.91
2023-02-04T00:47:18.535Z,1020.02
2023-02-04T00:48:18.520Z,1020.03
2023-02-04T00:49:18.504Z,1020.03
2023-02-04T00:50:18.478Z,1020.15
2023-02-04T00:51:18.469Z,1020.17
2023-02-04T00:52:18.482Z,1020.24
2023-02-04T00:53:18.451Z,1020.33
2023-02-04T00:54:18.425Z,1020.49
2023-02-04T00:55:18.424Z,1020.24
2023-02-04T00:56:18.414Z,1020.38
2023-02-04T00:57:18.384Z,1020.34
2023-02-04T00:58:18.375Z,1020.49
2023-02-04T00:59:18.375Z,1020.49
2023-02-04T01:00:18.338Z,1020.59
2023-02-04T01:01:18.388Z,1020.56
2023-02-04T01:02:18.703Z,1020.62
2023-02-04T01:03:18.302Z,1020.76
2023-02-04T01:04:18.282Z,1020.70
2023-02-04T01:05:18.290Z,1020.73
2023-02-04T01:06:18.263Z,1020.77
2023-02-04T01:07:18.283Z,1020.79
2023-02-04T01:08:18.241Z,1020.79
2023-02-04T01:09:18.235Z,1020.78
2023-02-04T01:10:18.218Z,1020.84
2023-02-04T01:11:18.194Z,1020.86
2023-02-04T01:12:18.199Z,1020.89
2023-02-04T01:13:18.182Z,1020.99
2023-02-04T01:14:18.168Z,1020.96
2023-02-04T01:15:18.140Z,1021.01
2023-02-04T01:16:18.201Z,1020.99
2023-02-04T01:17:18.120Z,1021.08
2023-02-04T01:18:18.099Z,1021.08
2023-02-04T01:19:18.090Z,1021.11
2023-02-04T01:20:18.082Z,1021.09
2023-02-04T01:21:18.076Z,1021.15
2023-02-04T01:22:18.058Z,1021.14
2023-02-04T01:23:18.025Z,1021.15
2023-02-04T01:24:18.035Z,1021.20
2023-02-04T01:25:18.002Z,1021.24
2023-02-04T01:26:18.009Z,1021.39
2023-02-04T01:27:18.007Z,1021.42
2023-02-04T01:28:18.101Z,1021.47
2023-02-04T01:29:17.944Z,1021.42
2023-02-04T01:30:17.933Z,1021.52
2023-02-04T01:31:18.226Z,1021.50
2023-02-04T01:32:17.898Z,1021.58
2023-02-04T01:33:17.888Z,1021.46
2023-02-04T01:34:17.898Z,1021.73
2023-02-04T01:35:17.876Z,1021.52
2023-02-04T01:36:17.856Z,1021.66
2023-02-04T01:37:17.873Z,1021.71
2023-02-04T01:38:17.818Z,1021.73
2023-02-04T01:39:17.814Z,1021.76
2023-02-04T01:40:17.795Z,1021.77
2023-02-04T01:41:17.791Z,1021.75
2023-02-04T01:42:17.765Z,1021.78
2023-02-04T01:43:17.775Z,1021.76
2023-02-04T01:44:17.730Z,1021.86
2023-02-04T01:45:17.726Z,1021.88
2023-02-04T01:46:17.838Z,1021.96
2023-02-04T01:47:17.690Z,1021.96
2023-02-04T01:48:17.678Z,1021.99
2023-02-04T01:49:17.662Z,1022.03
2023-02-04T01:50:17.671Z,1022.09
2023-02-04T01:51:17.646Z,1022.08
2023-02-04T01:52:17.623Z,1022.16
2023-02-04T01:53:17.621Z,1022.20
2023-02-04T01:54:17.592Z,1022.22
2023-02-04T01:55:17.584Z,1022.32
2023-02-04T01:56:17.582Z,1022.29
2023-02-04T01:57:17.554Z,1022.38
2023-02-04T01:58:17.541Z,1022.40
2023-02-04T01:59:17.545Z,1022.43
2023-02-04T02:00:17.509Z,1022.48
2023-02-04T02:01:17.598Z,1022.50
2023-02-04T02:02:17.517Z,1022.51
2023-02-04T02:03:17.468Z,1022.54
2023-02-04T02:04:17.463Z,1022.60
2023-02-04T02:05:17.449Z,1022.61
2023-02-04T02:06:17.421Z,1022.63
2023-02-04T02:07:17.414Z,1022.66
2023-02-04T02:08:17.401Z,1022.72
2023-02-04T02:09:17.397Z,1022.71
2023-02-04T02:10:17.372Z,1022.74
2023-02-04T02:11:17.355Z,1022.73
2023-02-04T02:12:17.347Z,1022.77
2023-02-04T02:13:17.333Z,1022.77
2023-02-04T02:14:17.339Z,1022.82
2023-02-04T02:15:17.302Z,1022.81
2023-02-04T02:16:17.345Z,1022.84
2023-02-04T02:17:17.272Z,1022.85
2023-02-04T02:18:17.257Z,1022.88
2023-02-04T02:19:17.252Z,1022.90
2023-02-04T02:20:17.243Z,1022.91
2023-02-04T02:21:17.213Z,1022.93
2023-02-04T02:22:17.202Z,1023.02
2023-02-04T02:23:17.200Z,1023.02
2023-02-04T02:24:17.175Z,1023.02
2023-02-04T02:25:17.165Z,1023.07
2023-02-04T02:26:17.149Z,1023.06
2023-02-04T02:27:17.177Z,1023.12
2023-02-04T02:28:17.199Z,1023.07
2023-02-04T02:29:17.103Z,1023.16
2023-02-04T02:30:17.084Z,1023.16
2023-02-04T02:31:17.143Z,1023.15
2023-02-04T02:32:17.065Z,1023.16
2023-02-04T02:33:17.052Z,1023.22
2023-02-04T02:34:17.032Z,1023.23
2023-02-04T02:35:17.024Z,1023.23
2023-02-04T02:36:17.005Z,1023.30
2023-02-04T02:37:16.989Z,1023.30
2023-02-04T02:38:17.011Z,1023.32
2023-02-04T02:39:17.047Z,1023.30
2023-02-04T02:40:16.946Z,1023.34
2023-02-04T02:41:16.956Z,1023.36
2023-02-04T02:42:16.923Z,1023.37
2023-02-04T02:43:16.929Z,1023.40
2023-02-04T02:44:16.885Z,1023.45
2023-02-04T02:45:16.872Z,1023.50
2023-02-04T02:46:16.909Z,1023.50
2023-02-04T02:47:16.857Z,1023.55
2023-02-04T02:48:16.836Z,1023.59
2023-02-04T02:49:16.852Z,1023.60
2023-02-04T02:50:16.809Z,1023.60
2023-02-04T02:51:16.801Z,1023.69
2023-02-04T02:52:16.780Z,1023.70
2023-02-04T02:53:16.762Z,1023.69
2023-02-04T02:54:16.744Z,1023.73
2023-02-04T02:55:16.731Z,1023.72
2023-02-04T02:56:16.716Z,1023.72
2023-02-04T02:57:16.703Z,1023.75
2023-02-04T02:58:16.693Z,1023.76
2023-02-04T02:59:16.708Z,1023.76
2023-02-04T03:00:16.659Z,1023.80
2023-02-04T03:01:16.707Z,1023.80
2023-02-04T03:02:16.691Z,1023.86
2023-02-04T03:03:16.608Z,1023.87
2023-02-04T03:04:16.608Z,1023.89
2023-02-04T03:05:16.644Z,1023.97
2023-02-04T03:06:16.575Z,1024.01
2023-02-04T03:07:16.592Z,1024.02
2023-02-04T03:08:16.547Z,1023.99
2023-02-04T03:09:16.531Z,1024.03
2023-02-04T03:10:16.510Z,1024.02
2023-02-04T03:11:16.513Z,1024.04
2023-02-04T03:12:16.503Z,1024.08
2023-02-04T03:13:16.473Z,1024.07
2023-02-04T03:14:16.456Z,1024.08
2023-02-04T03:15:16.439Z,1024.06
2023-02-04T03:16:16.425Z,1024.12
2023-02-04T03:17:16.410Z,1024.13
2023-02-04T03:18:16.396Z,1024.16
2023-02-04T03:19:16.388Z,1024.20
2023-02-04T03:20:16.372Z,1024.25
2023-02-04T03:21:16.382Z,1024.28
2023-02-04T03:22:16.355Z,1024.29
2023-02-04T03:23:16.326Z,1024.37
2023-02-04T03:24:16.317Z,1024.40
2023-02-04T03:25:16.303Z,1024.38
2023-02-04T03:26:16.288Z,1024.47
2023-02-04T03:27:16.270Z,1024.56
2023-02-04T03:28:16.327Z,1024.61
2023-02-04T03:29:16.276Z,1024.57
2023-02-04T03:30:16.228Z,1024.65
2023-02-04T03:31:16.302Z,1024.68
2023-02-04T03:32:16.201Z,1024.69
2023-02-04T03:33:16.196Z,1024.66
2023-02-04T03:34:16.173Z,1024.72
2023-02-04T03:35:16.158Z,1024.76
2023-02-04T03:36:16.143Z,1024.75
2023-02-04T03:37:16.129Z,1024.77
2023-02-04T03:38:16.114Z,1024.80
2023-02-04T03:39:16.098Z,1024.80
2023-02-04T03:40:16.103Z,1024.87
2023-02-04T03:41:16.070Z,1024.97
2023-02-04T03:42:16.065Z,1025.04
2023-02-04T03:43:16.047Z,1025.11
2023-02-04T03:44:16.030Z,1025.16
2023-02-04T03:45:16.017Z,1025.18
2023-02-04T03:46:16.061Z,1025.23
2023-02-04T03:47:15.992Z,1025.29
2023-02-04T03:48:15.977Z,1025.32
2023-02-04T03:49:15.956Z,1025.36
2023-02-04T03:50:15.967Z,1025.36
2023-02-04T03:51:15.938Z,1025.40
2023-02-04T03:52:15.911Z,1025.44
2023-02-04T03:53:15.905Z,1025.50
2023-02-04T03:54:15.891Z,1025.52
2023-02-04T03:55:15.874Z,1025.56
2023-02-04T03:56:15.860Z,1025.56
2023-02-04T03:57:15.845Z,1025.57
2023-02-04T03:58:15.832Z,1025.59
2023-02-04T03:59:15.818Z,1025.58
2023-02-04T04:00:15.832Z,1025.60
2023-02-04T04:01:15.878Z,1025.61
2023-02-04T04:02:15.795Z,1025.64
2023-02-04T04:03:15.763Z,1025.67
2023-02-04T04:04:15.746Z,1025.71
2023-02-04T04:05:15.748Z,1025.72
2023-02-04T04:06:15.715Z,1025.77
2023-02-04T04:07:15.713Z,1025.80
2023-02-04T04:08:15.686Z,1025.82
2023-02-04T04:09:15.678Z,1025.80
2023-02-04T04:10:15.700Z,1025.80
2023-02-04T04:11:15.682Z,1025.78
2023-02-04T04:12:15.630Z,1025.80
2023-02-04T04:13:15.617Z,1025.81
2023-02-04T04:14:15.633Z,1025.84
2023-02-04T04:15:15.589Z,1025.89
2023-02-04T04:16:15.614Z,1025.95
2023-02-04T04:17:15.556Z,1025.98
2023-02-04T04:18:15.550Z,1025.99
2023-02-04T04:19:15.540Z,1026.02
2023-02-04T04:20:15.518Z,1026.08
2023-02-04T04:21:15.504Z,1026.09
2023-02-04T04:22:15.486Z,1026.11
2023-02-04T04:23:15.475Z,1026.14
2023-02-04T04:24:15.464Z,1026.19
2023-02-04T04:25:15.471Z,1026.21
2023-02-04T04:26:15.427Z,1026.24
2023-02-04T04:27:15.414Z,1026.26
2023-02-04T04:28:15.429Z,1026.24
2023-02-04T04:29:15.385Z,1026.28
2023-02-04T04:30:15.381Z,1026.30
2023-02-04T04:31:15.417Z,1026.32
2023-02-04T04:32:15.341Z,1026.34
2023-02-04T04:33:15.355Z,1026.33
2023-02-04T04:34:15.328Z,1026.38
2023-02-04T04:35:15.297Z,1026.40
2023-02-04T04:36:15.280Z,1026.40
2023-02-04T04:37:15.274Z,1026.45
2023-02-04T04:38:15.249Z,1026.50
2023-02-04T04:39:15.238Z,1026.56
2023-02-04T04:40:15.240Z,1026.62
2023-02-04T04:41:15.302Z,1026.63
2023-02-04T04:42:15.195Z,1026.62
2023-02-04T04:43:15.175Z,1026.68
2023-02-04T04:44:15.168Z,1026.73
2023-02-04T04:45:15.151Z,1026.74
2023-02-04T04:46:15.182Z,1026.80
2023-02-04T04:47:15.132Z,1026.85
2023-02-04T04:48:15.113Z,1026.87
2023-02-04T04:49:15.094Z,1026.96
2023-02-04T04:50:15.090Z,1026.91
2023-02-04T04:51:15.065Z,1026.94
2023-02-04T04:52:15.054Z,1027.00
2023-02-04T04:53:15.032Z,1027.02
2023-02-04T04:54:15.018Z,1027.04
2023-02-04T04:55:15.004Z,1027.09
2023-02-04T04:56:14.990Z,1027.07
2023-02-04T04:57:14.986Z,1027.08
2023-02-04T04:58:14.959Z,1027.09
2023-02-04T04:59:14.952Z,1027.10
2023-02-04T05:00:14.940Z,1027.11
2023-02-04T05:01:14.950Z,1027.15
2023-02-04T05:02:14.925Z,1027.16
2023-02-04T05:03:14.993Z,1027.14
2023-02-04T05:04:14.896Z,1027.20
2023-02-04T05:05:14.893Z,1027.19
2023-02-04T05:06:14.872Z,1027.25
2023-02-04T05:07:14.872Z,1027.25
2023-02-04T05:08:15.005Z,1027.29
2023-02-04T05:09:14.812Z,1027.34
2023-02-04T05:10:14.794Z,1027.33
2023-02-04T05:11:14.790Z,1027.31
2023-02-04T05:12:14.805Z,1027.35
2023-02-04T05:13:14.767Z,1027.31
2023-02-04T05:14:14.767Z,1027.33
2023-02-04T05:15:14.818Z,1027.32
2023-02-04T05:16:14.749Z,1027.36
2023-02-04T05:17:15.156Z,1027.38
2023-02-04T05:18:14.749Z,1027.40
2023-02-04T05:19:14.976Z,1027.44
2023-02-04T05:20:14.712Z,1027.43
2023-02-04T05:21:14.639Z,1027.48
2023-02-04T05:22:14.620Z,1027.47
2023-02-04T05:23:14.624Z,1027.50
2023-02-04T05:24:14.591Z,1027.52
2023-02-04T05:25:14.578Z,1027.55
2023-02-04T05:26:25.139Z,1027.57
2023-02-04T05:27:14.565Z,1027.60
2023-02-04T05:28:14.631Z,1027.61
2023-02-04T05:29:14.535Z,1027.64
2023-02-04T05:30:14.542Z,1027.70
2023-02-04T05:31:14.571Z,1027.71
2023-02-04T05:32:14.510Z,1027.76
2023-02-04T05:33:14.478Z,1027.78
2023-02-04T05:34:14.465Z,1027.83
2023-02-04T05:35:14.436Z,1027.84
2023-02-04T05:36:14.427Z,1027.87
2023-02-04T05:37:14.633Z,1027.89
2023-02-04T05:38:14.407Z,1027.93
2023-02-04T05:39:14.385Z,1027.98
2023-02-04T05:40:14.370Z,1028.00
2023-02-04T05:41:14.382Z,1028.01
2023-02-04T05:42:14.346Z,1028.04
2023-02-04T05:43:14.322Z,1028.03
2023-02-04T05:44:14.305Z,1028.04
2023-02-04T05:45:14.312Z,1028.09
2023-02-04T05:46:14.382Z,1028.10
2023-02-04T05:47:14.278Z,1028.13
2023-02-04T05:48:14.337Z,1028.12
2023-02-04T05:49:14.234Z,1028.15
2023-02-04T05:50:14.216Z,1028.13
2023-02-04T05:51:14.208Z,1028.18
2023-02-04T05:52:14.190Z,1028.18
2023-02-04T05:53:14.174Z,1028.22
2023-02-04T05:54:14.155Z,1028.24
2023-02-04T05:55:14.148Z,1028.25
2023-02-04T05:56:14.125Z,1028.26
2023-02-04T05:57:14.164Z,1028.25
2023-02-04T05:58:14.102Z,1028.29
2023-02-04T05:59:14.088Z,1028.32
2023-02-04T06:00:14.069Z,1028.36
2023-02-04T06:01:14.104Z,1028.34
2023-02-04T06:02:14.049Z,1028.37
2023-02-04T06:03:14.095Z,1028.40
2023-02-04T06:04:14.039Z,1028.46
2023-02-04T06:05:13.996Z,1028.51
2023-02-04T06:06:14.008Z,1028.55
2023-02-04T06:07:13.996Z,1028.58
2023-02-04T06:08:13.952Z,1028.59
2023-02-04T06:09:13.940Z,1028.64
2023-02-04T06:10:13.952Z,1028.62
2023-02-04T06:11:13.944Z,1028.69
2023-02-04T06:12:13.899Z,1028.68
2023-02-04T06:13:13.878Z,1028.71
2023-02-04T06:14:13.868Z,1028.74
2023-02-04T06:15:13.885Z,1028.75
2023-02-04T06:16:14.944Z,1028.79
2023-02-04T06:17:13.824Z,1028.78
2023-02-04T06:18:13.805Z,1028.86
2023-02-04T06:19:13.799Z,1028.85
2023-02-04T06:20:13.791Z,1028.82
2023-02-04T06:21:13.779Z,1028.87
2023-02-04T06:22:13.761Z,1028.85
2023-02-04T06:23:13.731Z,1028.89
2023-02-04T06:24:13.714Z,1028.90
2023-02-04T06:25:13.700Z,1028.90
2023-02-04T06:26:13.696Z,1028.92
2023-02-04T06:27:13.684Z,1028.90
2023-02-04T06:28:13.716Z,1028.93
2023-02-04T06:29:13.645Z,1028.97
2023-02-04T06:30:13.643Z,1028.95
2023-02-04T06:31:13.695Z,1028.97
2023-02-04T06:32:13.610Z,1029.00
2023-02-04T06:33:13.588Z,1029.02
2023-02-04T06:34:13.575Z,1029.05
2023-02-04T06:35:13.563Z,1029.07
2023-02-04T06:36:13.597Z,1029.07
2023-02-04T06:37:13.527Z,1029.12
2023-02-04T06:38:13.528Z,1029.11
2023-02-04T06:39:13.509Z,1029.17
2023-02-04T06:40:13.514Z,1029.16
2023-02-04T06:41:13.473Z,1029.17
2023-02-04T06:42:13.459Z,1029.15
2023-02-04T06:43:13.466Z,1029.17
2023-02-04T06:44:13.432Z,1029.21
2023-02-04T06:45:13.409Z,1029.15
2023-02-04T06:46:13.495Z,1029.18
2023-02-04T06:47:13.379Z,1029.11
2023-02-04T06:48:13.383Z,1029.13
2023-02-04T06:49:13.366Z,1029.17
2023-02-04T06:50:13.336Z,1029.14
2023-02-04T06:51:13.329Z,1029.14
2023-02-04T06:52:13.318Z,1029.10
2023-02-04T06:53:13.305Z,1029.14
2023-02-04T06:54:13.279Z,1029.10
2023-02-04T06:55:13.269Z,1029.11
2023-02-04T06:56:13.248Z,1029.21
2023-02-04T06:57:13.238Z,1029.16
2023-02-04T06:58:13.236Z,1029.19
2023-02-04T06:59:13.206Z,1029.20
2023-02-04T07:00:13.194Z,1029.16
2023-02-04T07:01:13.205Z,1029.14
2023-02-04T07:02:13.222Z,1029.19
2023-02-04T07:03:13.156Z,1029.19
2023-02-04T07:04:13.139Z,1029.23
2023-02-04T07:05:13.125Z,1029.22
2023-02-04T07:06:13.116Z,1029.13
2023-02-04T07:07:13.105Z,1029.15
2023-02-04T07:08:13.095Z,1029.16
2023-02-04T07:09:13.061Z,1029.18
2023-02-04T07:10:13.049Z,1029.23
2023-02-04T07:11:13.031Z,1029.30
2023-02-04T07:12:14.791Z,1029.33
2023-02-04T07:13:13.041Z,1029.33
2023-02-04T07:14:13.015Z,1029.32
2023-02-04T07:15:13.056Z,1029.35
2023-02-04T07:16:13.079Z,1029.35
2023-02-04T07:17:13.635Z,1029.39
2023-02-04T07:18:12.972Z,1029.45
2023-02-04T07:19:12.915Z,1029.43
2023-02-04T07:20:12.927Z,1029.49
2023-02-04T07:21:12.982Z,1029.47
2023-02-04T07:22:12.886Z,1029.52
2023-02-04T07:23:12.863Z,1029.52
2023-02-04T07:24:12.860Z,1029.58
2023-02-04T07:25:12.850Z,1029.60
2023-02-04T07:26:12.837Z,1029.62
2023-02-04T07:27:13.606Z,1029.65
2023-02-04T07:28:12.867Z,1029.66
2023-02-04T07:29:20.684Z,1029.66
2023-02-04T07:30:12.786Z,1029.67
2023-02-04T07:31:12.818Z,1029.68
2023-02-04T07:32:12.725Z,1029.71
2023-02-04T07:33:12.715Z,1029.71
2023-02-04T07:34:12.723Z,1029.76
2023-02-04T07:35:12.689Z,1029.78
2023-02-04T07:36:14.452Z,1029.83
2023-02-04T07:37:12.649Z,1029.84
2023-02-04T07:38:12.629Z,1029.83
2023-02-04T07:39:12.617Z,1029.88
2023-02-04T07:40:12.612Z,1029.92
2023-02-04T07:41:12.586Z,1029.91
2023-02-04T07:42:12.575Z,1029.93
2023-02-04T07:43:12.590Z,1029.96
2023-02-04T07:44:12.550Z,1029.98
2023-02-04T07:45:12.540Z,1030.06
2023-02-04T07:46:12.587Z,1030.03
2023-02-04T07:47:12.501Z,1030.05
2023-02-04T07:48:12.479Z,1030.09
2023-02-04T07:49:12.481Z,1030.10
2023-02-04T07:50:12.457Z,1030.11
2023-02-04T07:51:12.441Z,1030.12
2023-02-04T07:52:12.428Z,1030.12
2023-02-04T07:53:13.104Z,1030.15
2023-02-04T07:54:12.407Z,1030.19
2023-02-04T07:55:12.405Z,1030.18
2023-02-04T07:56:12.360Z,1030.17
2023-02-04T07:57:12.342Z,1030.24
2023-02-04T07:58:13.101Z,1030.26
2023-02-04T07:59:12.321Z,1030.27
2023-02-04T08:00:12.306Z,1030.29
2023-02-04T08:01:12.449Z,1030.29
2023-02-04T08:02:12.276Z,1030.26
2023-02-04T08:03:12.265Z,1030.31
2023-02-04T08:04:12.258Z,1030.34
2023-02-04T08:05:12.759Z,1030.39
2023-02-04T08:06:12.235Z,1030.40
2023-02-04T08:07:12.229Z,1030.41
2023-02-04T08:08:12.184Z,1030.49
2023-02-04T08:09:12.179Z,1030.51
2023-02-04T08:10:12.169Z,1030.51
2023-02-04T08:11:12.145Z,1030.50
2023-02-04T08:12:12.139Z,1030.52
2023-02-04T08:13:12.124Z,1030.55
2023-02-04T08:14:12.092Z,1030.60
2023-02-04T08:15:12.088Z,1030.54
2023-02-04T08:16:12.118Z,1030.54
2023-02-04T08:17:12.094Z,1030.51
2023-02-04T08:18:12.077Z,1030.54
2023-02-04T08:19:12.031Z,1030.58
2023-02-04T08:20:12.001Z,1030.60
2023-02-04T08:21:12.002Z,1030.59
2023-02-04T08:22:12.032Z,1030.59
2023-02-04T08:23:11.987Z,1030.61
2023-02-04T08:24:11.961Z,1030.65
2023-02-04T08:25:11.932Z,1030.68
2023-02-04T08:26:11.914Z,1030.69
2023-02-04T08:27:11.914Z,1030.75
2023-02-04T08:28:11.962Z,1030.78
2023-02-04T08:29:11.981Z,1030.80
2023-02-04T08:30:11.859Z,1030.78
2023-02-04T08:31:12.101Z,1030.79
2023-02-04T08:32:11.853Z,1030.82
2023-02-04T08:33:11.883Z,1030.84
2023-02-04T08:34:11.814Z,1030.82
2023-02-04T08:35:11.817Z,1030.88
2023-02-04T08:36:11.788Z,1030.85
2023-02-04T08:37:11.816Z,1030.84
2023-02-04T08:38:11.774Z,1030.87
2023-02-04T08:39:11.746Z,1030.88
2023-02-04T08:40:11.790Z,1030.88
2023-02-04T08:41:11.701Z,1030.89
2023-02-04T08:42:11.688Z,1030.89
2023-02-04T08:43:12.034Z,1030.88
2023-02-04T08:44:11.667Z,1030.85
2023-02-04T08:45:11.746Z,1030.88
2023-02-04T08:46:11.700Z,1030.89
2023-02-04T08:47:11.649Z,1030.90
2023-02-04T08:48:11.612Z,1030.89
2023-02-04T08:49:11.609Z,1030.90
2023-02-04T08:50:11.629Z,1030.95
2023-02-04T08:51:11.630Z,1030.99
2023-02-04T08:52:11.622Z,1030.96
2023-02-04T08:53:11.571Z,1030.96
2023-02-04T08:54:11.640Z,1030.96
2023-02-04T08:55:11.528Z,1030.95
2023-02-04T08:56:11.520Z,1031.00
2023-02-04T08:57:11.526Z,1030.99
2023-02-04T08:58:11.484Z,1031.05
2023-02-04T08:59:11.487Z,1031.08
2023-02-04T09:00:11.459Z,1031.06
2023-02-04T09:01:11.523Z,1031.11
2023-02-04T09:02:11.497Z,1031.08
2023-02-04T09:03:11.417Z,1031.04
2023-02-04T09:04:11.407Z,1031.03
2023-02-04T09:05:11.427Z,1031.08
2023-02-04T09:06:11.390Z,1031.07
2023-02-04T09:07:11.439Z,1031.13
2023-02-04T09:08:11.407Z,1031.13
2023-02-04T09:09:11.340Z,1031.14
2023-02-04T09:10:11.361Z,1031.19
2023-02-04T09:11:11.328Z,1031.15
2023-02-04T09:12:11.404Z,1031.19
2023-02-04T09:13:11.299Z,1031.22
2023-02-04T09:14:11.271Z,1031.22
2023-02-04T09:15:11.255Z,1031.24
2023-02-04T09:16:11.311Z,1031.28
2023-02-04T09:17:11.229Z,1031.28
2023-02-04T09:18:11.209Z,1031.29
2023-02-04T09:19:11.223Z,1031.25
2023-02-04T09:20:11.228Z,1031.30
2023-02-04T09:21:11.184Z,1031.31
2023-02-04T09:22:11.171Z,1031.32
2023-02-04T09:23:11.298Z,1031.32
2023-02-04T09:24:11.161Z,1031.33
2023-02-04T09:25:11.164Z,1031.35
2023-02-04T09:26:11.154Z,1031.37
2023-02-04T09:27:11.114Z,1031.38
2023-02-04T09:28:11.101Z,1031.43
2023-02-04T09:29:11.297Z,1031.40
2023-02-04T09:30:11.159Z,1031.46
2023-02-04T09:31:11.131Z,1031.47
2023-02-04T09:32:11.715Z,1031.49
2023-02-04T09:33:11.070Z,1031.54
2023-02-04T09:34:11.009Z,1031.56
2023-02-04T09:35:10.998Z,1031.50
2023-02-04T09:36:10.977Z,1031.56
2023-02-04T09:37:10.967Z,1031.58
2023-02-04T09:38:10.979Z,1031.62
2023-02-04T09:39:11.097Z,1031.60
2023-02-04T09:40:11.075Z,1031.63
2023-02-04T09:41:10.901Z,1031.68
2023-02-04T09:42:10.925Z,1031.68
2023-02-04T09:43:10.908Z,1031.67
2023-02-04T09:44:10.913Z,1031.73
2023-02-04T09:45:10.980Z,1031.72
2023-02-04T09:46:10.882Z,1031.74
2023-02-04T09:47:10.846Z,1031.74
2023-02-04T09:48:10.828Z,1031.74
2023-02-04T09:49:10.801Z,1031.76
2023-02-04T09:50:10.832Z,1031.75
2023-02-04T09:51:11.049Z,1031.70
2023-02-04T09:52:10.761Z,1031.75
2023-02-04T09:53:10.756Z,1031.74
2023-02-04T09:54:10.822Z,1031.73
2023-02-04T09:55:10.773Z,1031.77
2023-02-04T09:56:10.714Z,1031.75
2023-02-04T09:57:10.676Z,1031.77
2023-02-04T09:58:10.672Z,1031.73
2023-02-04T09:59:10.656Z,1031.72
2023-02-04T10:00:10.640Z,1031.73
2023-02-04T10:01:10.704Z,1031.69
2023-02-04T10:02:10.612Z,1031.69
2023-02-04T10:03:10.753Z,1031.73
2023-02-04T10:04:10.591Z,1031.74
2023-02-04T10:05:10.628Z,1031.67
2023-02-04T10:06:10.594Z,1031.74
2023-02-04T10:07:10.552Z,1031.73
2023-02-04T10:08:10.530Z,1031.72
2023-02-04T10:09:10.521Z,1031.80
2023-02-04T10:10:10.553Z,1031.66
2023-02-04T10:11:10.510Z,1031.80
2023-02-04T10:12:10.777Z,1031.82
2023-02-04T10:13:10.462Z,1031.83
2023-02-04T10:14:10.441Z,1031.79
2023-02-04T10:15:10.424Z,1031.83
2023-02-04T10:16:10.463Z,1031.85
2023-02-04T10:17:10.401Z,1031.86
2023-02-04T10:18:10.419Z,1031.86
2023-02-04T10:19:10.413Z,1031.83
2023-02-04T10:20:10.398Z,1031.85
2023-02-04T10:21:10.363Z,1031.90
2023-02-04T10:22:10.387Z,1031.88
2023-02-04T10:23:12.461Z,1031.88
2023-02-04T10:24:10.319Z,1031.90
2023-02-04T10:25:10.321Z,1031.89
2023-02-04T10:26:10.374Z,1031.87
2023-02-04T10:27:10.318Z,1031.95
2023-02-04T10:28:10.613Z,1031.94
2023-02-04T10:29:10.259Z,1031.92
2023-02-04T10:30:10.224Z,1031.89
2023-02-04T10:31:10.377Z,1031.90
2023-02-04T10:32:10.262Z,1031.91
2023-02-04T10:33:10.296Z,1031.98
2023-02-04T10:34:10.213Z,1031.96
2023-02-04T10:35:10.260Z,1031.94
2023-02-04T10:36:10.158Z,1031.95
2023-02-04T10:37:10.197Z,1032.03
2023-02-04T10:38:10.124Z,1032.01
2023-02-04T10:39:10.156Z,1031.99
2023-02-04T10:40:10.125Z,1032.04
2023-02-04T10:41:10.082Z,1032.05
2023-02-04T10:42:10.068Z,1032.03
2023-02-04T10:43:10.058Z,1032.05
2023-02-04T10:44:10.069Z,1032.03
2023-02-04T10:45:10.023Z,1032.04
2023-02-04T10:46:10.022Z,1032.01
2023-02-04T10:47:10.004Z,1032.02
2023-02-04T10:48:09.985Z,1032.02
2023-02-04T10:49:09.990Z,1032.00
2023-02-04T10:50:10.055Z,1032.01
2023-02-04T10:51:09.966Z,1032.01
2023-02-04T10:52:09.959Z,1032.03
2023-02-04T10:53:09.925Z,1032.06
2023-02-04T10:54:09.924Z,1032.02
2023-02-04T10:55:09.895Z,1032.03
2023-02-04T10:56:10.024Z,1032.02
2023-02-04T10:57:09.931Z,1032.08
2023-02-04T10:58:09.952Z,1032.06
2023-02-04T10:59:09.875Z,1032.09
2023-02-04T11:00:09.904Z,1032.07
2023-02-04T11:01:09.923Z,1032.09
2023-02-04T11:02:09.818Z,1032.05
2023-02-04T11:03:09.857Z,1032.13
2023-02-04T11:04:09.785Z,1032.12
2023-02-04T11:05:09.799Z,1032.13
2023-02-04T11:06:09.768Z,1032.16
2023-02-04T11:07:09.799Z,1032.11
2023-02-04T11:08:09.746Z,1032.12
2023-02-04T11:09:09.720Z,1032.14
2023-02-04T11:10:09.713Z,1032.16
2023-02-04T11:11:09.709Z,1032.20
2023-02-04T11:12:09.677Z,1032.19
2023-02-04T11:13:09.714Z,1032.18
2023-02-04T11:14:09.654Z,1032.21
2023-02-04T11:15:09.679Z,1032.19
2023-02-04T11:16:09.737Z,1032.17
2023-02-04T11:17:09.621Z,1032.18
2023-02-04T11:18:09.606Z,1032.15
2023-02-04T11:19:09.587Z,1032.15
2023-02-04T11:20:09.573Z,1032.16
2023-02-04T11:21:09.618Z,1032.14
2023-02-04T11:22:09.569Z,1032.24
2023-02-04T11:23:09.545Z,1032.31
2023-02-04T11:24:09.529Z,1032.29
2023-02-04T11:25:09.531Z,1032.26
2023-02-04T11:26:09.519Z,1032.29
2023-02-04T11:27:09.528Z,1032.28
2023-02-04T11:28:09.579Z,1032.28
2023-02-04T11:29:09.502Z,1032.27
2023-02-04T11:30:09.439Z,1032.28
2023-02-04T11:31:09.538Z,1032.31
2023-02-04T11:32:09.495Z,1032.33
2023-02-04T11:33:09.411Z,1032.37
2023-02-04T11:34:09.436Z,1032.36
2023-02-04T11:35:09.401Z,1032.36
2023-02-04T11:36:09.375Z,1032.31
2023-02-04T11:37:09.360Z,1032.40
2023-02-04T11:38:09.377Z,1032.39
2023-02-04T11:39:09.325Z,1032.43
2023-02-04T11:40:09.368Z,1032.41
2023-02-04T11:41:09.301Z,1032.47
2023-02-04T11:42:09.289Z,1032.46
2023-02-04T11:43:09.282Z,1032.47
2023-02-04T11:44:09.267Z,1032.46
2023-02-04T11:45:09.299Z,1032.49
2023-02-04T11:46:09.312Z,1032.47
2023-02-04T11:47:09.241Z,1032.45
2023-02-04T11:48:09.207Z,1032.39
2023-02-04T11:49:09.195Z,1032.53
2023-02-04T11:50:09.219Z,1032.55
2023-02-04T11:51:09.178Z,1032.57
2023-02-04T11:52:09.230Z,1032.59
2023-02-04T11:53:09.154Z,1032.57
2023-02-04T11:54:09.134Z,1032.58
2023-02-04T11:55:09.124Z,1032.53
2023-02-04T11:56:09.108Z,1032.62
2023-02-04T11:57:09.100Z,1032.58
2023-02-04T11:58:09.093Z,1032.61
2023-02-04T11:59:09.098Z,1032.59
2023-02-04T12:00:09.057Z,1032.64
2023-02-04T12:01:09.061Z,1032.64
2023-02-04T12:02:09.046Z,1032.65
2023-02-04T12:03:09.025Z,1032.61
2023-02-04T12:04:09.105Z,1032.57
2023-02-04T12:05:08.999Z,1032.56